Time;durP1;ratioP1;P1;durP2;ratioP2;P2;SDS_P1;SDS_P2;PMS_P1;PMS_P2;Temp;Humidity;BMP_temperature;BMP_pressure;BME280_temperature;BME280_humidity;BME280_pressure;Samples;Min_cycle;Max_cycle;Signal;HPM_P1;HPM_P2
2023/03/12 00:02:24;;;;;;;9.80;4.15;;;;;;;;;;5023022;28;20034;-68
2023/03/12 00:04:50;;;;;;;14.52;4.30;;;;;;;;;;5025233;28;20033;-68
2023/03/12 00:07:17;;;;;;;14.52;4.20;;;;;;;;;;5023752;28;20036;-68
2023/03/12 00:09:45;;;;;;;9.23;3.90;;;;;;;;;;5022329;28;20037;-68
2023/03/12 00:12:12;;;;;;;11.00;4.30;;;;;;;;;;5024584;28;20068;-69
2023/03/12 00:14:38;;;;;;;13.13;4.55;;;;;;;;;;5007093;28;20392;-68
2023/03/12 00:17:05;;;;;;;13.82;5.40;;;;;;;;;;5022846;28;20033;-68
2023/03/12 00:19:30;;;;;;;12.68;4.32;;;;;;;;;;5024987;28;20477;-68
2023/03/12 00:21:56;;;;;;;15.38;4.07;;;;;;;;;;5023912;28;20029;-68
2023/03/12 00:24:21;;;;;;;11.70;3.83;;;;;;;;;;5022884;28;20505;-68
2023/03/12 00:26:48;;;;;;;6.88;4.10;;;;;;;;;;5056184;28;20055;-68
2023/03/12 00:29:14;;;;;;;10.68;4.03;;;;;;;;;;5039657;28;20038;-69
2023/03/12 00:31:39;;;;;;;13.27;4.95;;;;;;;;;;5024633;28;20458;-68
2023/03/12 00:34:04;;;;;;;12.27;4.63;;;;;;;;;;5024769;28;20041;-67
2023/03/12 00:36:31;;;;;;;17.40;4.97;;;;;;;;;;5024037;28;20137;-68
2023/03/12 00:38:57;;;;;;;12.48;5.22;;;;;;;;;;5024060;28;20052;-67
2023/03/12 00:41:23;;;;;;;10.50;4.70;;;;;;;;;;5024512;28;20402;-67
2023/03/12 00:43:49;;;;;;;15.57;5.68;;;;;;;;;;5024649;28;20033;-68
2023/03/12 00:46:15;;;;;;;14.18;5.97;;;;;;;;;;5023958;28;20036;-68
2023/03/12 00:48:40;;;;;;;15.25;6.00;;;;;;;;;;5022570;28;20104;-68
2023/03/12 00:51:06;;;;;;;15.50;6.63;;;;;;;;;;5023907;28;20030;-68
2023/03/12 00:53:31;;;;;;;15.77;5.75;;;;;;;;;;5024314;28;20100;-68
2023/03/12 00:55:57;;;;;;;14.50;6.07;;;;;;;;;;5023784;28;20554;-68
2023/03/12 00:58:22;;;;;;;29.83;11.20;;;;;;;;;;5024519;28;20188;-68
2023/03/12 01:00:47;;;;;;;29.30;11.57;;;;;;;;;;5023906;28;20025;-67
2023/03/12 01:03:13;;;;;;;31.13;10.57;;;;;;;;;;5022401;28;20022;-68
2023/03/12 01:05:39;;;;;;;21.50;8.23;;;;;;;;;;5021986;28;20022;-67
2023/03/12 01:08:05;;;;;;;24.05;8.10;;;;;;;;;;5022420;28;20469;-67
2023/03/12 01:10:30;;;;;;;10.98;6.22;;;;;;;;;;5023548;28;20026;-67
2023/03/12 01:12:56;;;;;;;19.13;6.35;;;;;;;;;;5022264;28;20478;-67
2023/03/12 01:15:21;;;;;;;13.65;5.72;;;;;;;;;;5023440;28;20033;-68
2023/03/12 01:17:49;;;;;;;11.65;5.80;;;;;;;;;;5022270;28;20080;-67
2023/03/12 01:20:14;;;;;;;13.43;5.53;;;;;;;;;;5005937;28;20108;-67
2023/03/12 01:22:39;;;;;;;13.80;5.93;;;;;;;;;;5022523;28;20112;-68
2023/03/12 01:25:05;;;;;;;15.23;5.80;;;;;;;;;;5023343;28;20033;-68
2023/03/12 01:27:31;;;;;;;13.25;5.85;;;;;;;;;;5023583;28;20030;-68
2023/03/12 01:29:56;;;;;;;14.85;5.88;;;;;;;;;;5023217;28;20048;-67
2023/03/12 01:32:22;;;;;;;17.23;6.00;;;;;;;;;;5023391;28;20128;-67
2023/03/12 01:34:47;;;;;;;15.77;6.28;;;;;;;;;;5023406;28;20037;-66
2023/03/12 01:37:12;;;;;;;14.77;5.70;;;;;;;;;;5023363;28;20048;-69
2023/03/12 01:39:38;;;;;;;28.88;11.38;;;;;;;;;;5023582;28;20125;-67
2023/03/12 01:42:03;;;;;;;50.58;19.02;;;;;;;;;;5022216;28;20052;-67
2023/03/12 01:44:28;;;;;;;30.90;12.05;;;;;;;;;;5022988;28;20029;-66
2023/03/12 01:46:54;;;;;;;19.50;8.13;;;;;;;;;;5021958;28;20037;-66
2023/03/12 01:49:32;;;;;;;15.98;6.68;;;;;;;;;;5021572;28;20116;-68
2023/03/12 01:52:02;;;;;;;14.98;5.82;;;;;;;;;;5021414;28;20029;-68
2023/03/12 01:54:27;;;;;;;15.18;5.38;;;;;;;;;;5023078;28;20025;-66
2023/03/12 01:56:53;;;;;;;12.10;4.78;;;;;;;;;;5021397;28;20064;-67
2023/03/12 01:59:28;;;;;;;12.25;4.40;;;;;;;;;;5022692;28;20410;-68
2023/03/12 02:01:54;;;;;;;14.95;4.95;;;;;;;;;;5022792;28;20053;-68
2023/03/12 02:04:20;;;;;;;13.30;4.75;;;;;;;;;;5022938;28;20060;-68
2023/03/12 02:06:49;;;;;;;13.20;5.20;;;;;;;;;;5022846;28;20041;-68
2023/03/12 02:09:14;;;;;;;11.95;4.03;;;;;;;;;;5022457;28;20049;-67
2023/03/12 02:11:40;;;;;;;9.52;4.22;;;;;;;;;;5022962;28;20052;-68
2023/03/12 02:14:07;;;;;;;10.20;3.95;;;;;;;;;;5022906;28;20117;-68
2023/03/12 02:16:33;;;;;;;16.60;6.20;;;;;;;;;;5021488;28;20116;-67
2023/03/12 02:19:00;;;;;;;16.50;6.20;;;;;;;;;;5020822;28;20479;-67
2023/03/12 02:21:27;;;;;;;12.15;4.93;;;;;;;;;;5022964;28;20045;-67
2023/03/12 02:23:52;;;;;;;17.45;5.25;;;;;;;;;;5022167;28;20108;-67
2023/03/12 02:26:21;;;;;;;14.90;5.90;;;;;;;;;;5004589;28;20444;-67
2023/03/12 02:28:50;;;;;;;15.07;6.30;;;;;;;;;;5022768;28;20108;-67
2023/03/12 02:31:21;;;;;;;11.93;5.80;;;;;;;;;;5022196;28;20033;-66
2023/03/12 02:33:46;;;;;;;14.82;6.05;;;;;;;;;;5022035;28;20034;-67
2023/03/12 02:36:12;;;;;;;11.50;5.57;;;;;;;;;;5004651;28;20029;-68
2023/03/12 02:38:47;;;;;;;19.85;7.47;;;;;;;;;;5022815;28;20036;-67
2023/03/12 02:41:20;;;;;;;14.07;6.70;;;;;;;;;;5054641;28;20021;-67
2023/03/12 02:43:48;;;;;;;14.50;6.65;;;;;;;;;;5022516;28;20060;-68
2023/03/12 02:46:16;;;;;;;15.18;6.25;;;;;;;;;;5020490;28;20076;-66
2023/03/12 02:48:43;;;;;;;13.80;6.85;;;;;;;;;;5022552;28;20504;-67
2023/03/12 02:51:11;;;;;;;10.70;5.45;;;;;;;;;;5020535;28;20026;-68
2023/03/12 02:53:36;;;;;;;14.10;5.65;;;;;;;;;;5022455;28;20026;-66
2023/03/12 02:56:02;;;;;;;12.65;6.00;;;;;;;;;;5022541;28;20029;-67
2023/03/12 02:58:27;;;;;;;17.00;6.93;;;;;;;;;;5022082;28;20096;-67
2023/03/12 03:00:52;;;;;;;11.18;5.70;;;;;;;;;;5022921;28;20252;-67
2023/03/12 03:03:18;;;;;;;13.40;7.25;;;;;;;;;;5022557;28;20312;-67
2023/03/12 03:05:43;;;;;;;32.65;12.98;;;;;;;;;;5022344;28;20030;-68
2023/03/12 03:08:08;;;;;;;39.83;14.13;;;;;;;;;;5021433;28;20406;-66
2023/03/12 03:10:33;;;;;;;26.15;9.90;;;;;;;;;;5020330;28;20017;-67
2023/03/12 03:12:59;;;;;;;19.92;7.60;;;;;;;;;;5022875;28;20121;-67
2023/03/12 03:15:24;;;;;;;19.02;7.90;;;;;;;;;;5022657;28;20133;-68
2023/03/12 03:17:52;;;;;;;23.10;8.13;;;;;;;;;;5020906;28;20033;-68
2023/03/12 03:20:20;;;;;;;16.08;7.93;;;;;;;;;;5022049;28;20040;-67
2023/03/12 03:22:45;;;;;;;32.13;10.15;;;;;;;;;;5021806;28;20032;-67
2023/03/12 03:25:10;;;;;;;30.98;11.85;;;;;;;;;;5004164;28;20021;-67
2023/03/12 03:27:36;;;;;;;20.63;9.32;;;;;;;;;;5022262;28;20034;-67
2023/03/12 03:30:04;;;;;;;20.30;7.93;;;;;;;;;;5022586;28;20068;-67
2023/03/12 03:32:30;;;;;;;16.60;7.68;;;;;;;;;;5020264;28;20068;-67
2023/03/12 03:34:55;;;;;;;17.92;6.70;;;;;;;;;;5010516;28;20026;-67
2023/03/12 03:37:23;;;;;;;14.45;6.57;;;;;;;;;;4993149;28;20409;-67
2023/03/12 03:39:48;;;;;;;15.50;6.50;;;;;;;;;;5022481;28;20033;-68
2023/03/12 03:42:15;;;;;;;12.35;6.38;;;;;;;;;;5008459;28;20108;-67
2023/03/12 03:44:41;;;;;;;13.65;6.68;;;;;;;;;;5003804;28;20038;-67
2023/03/12 03:47:06;;;;;;;13.70;5.63;;;;;;;;;;5028652;28;20052;-67
2023/03/12 03:49:31;;;;;;;12.30;5.78;;;;;;;;;;5043784;28;20132;-67
2023/03/12 03:51:56;;;;;;;13.38;5.72;;;;;;;;;;5045236;28;20401;-68
2023/03/12 03:54:22;;;;;;;10.50;5.07;;;;;;;;;;5027361;28;20054;-68
2023/03/12 03:56:47;;;;;;;8.68;5.45;;;;;;;;;;5045285;28;20743;-69
2023/03/12 03:59:12;;;;;;;14.93;5.50;;;;;;;;;;5046040;28;20119;-66
2023/03/12 04:01:40;;;;;;;12.23;5.90;;;;;;;;;;5044880;28;20059;-67
2023/03/12 04:04:05;;;;;;;15.73;5.10;;;;;;;;;;5043930;28;20222;-68
2023/03/12 04:06:30;;;;;;;10.02;5.30;;;;;;;;;;5026370;28;20440;-67
2023/03/12 04:08:56;;;;;;;10.57;4.78;;;;;;;;;;5045195;28;20108;-68
2023/03/12 04:11:22;;;;;;;13.30;4.93;;;;;;;;;;5026628;28;20045;-67
2023/03/12 04:13:50;;;;;;;12.93;5.75;;;;;;;;;;5026831;28;20056;-67
2023/03/12 04:16:16;;;;;;;13.23;5.68;;;;;;;;;;5024720;28;20037;-66
2023/03/12 04:18:42;;;;;;;16.92;7.28;;;;;;;;;;5007187;28;20111;-67
2023/03/12 04:21:09;;;;;;;19.70;7.50;;;;;;;;;;5024954;28;20032;-67
2023/03/12 04:23:37;;;;;;;19.13;7.80;;;;;;;;;;5007676;28;20031;-66
2023/03/12 04:26:02;;;;;;;19.50;7.13;;;;;;;;;;4984374;28;20026;-65
2023/03/12 04:28:28;;;;;;;14.98;4.80;;;;;;;;;;4985186;28;20019;-66
2023/03/12 04:30:54;;;;;;;12.52;5.65;;;;;;;;;;4985620;28;20125;-67
2023/03/12 04:33:19;;;;;;;14.90;5.70;;;;;;;;;;4983441;28;20038;-66
2023/03/12 04:35:51;;;;;;;15.00;6.22;;;;;;;;;;4985746;28;20031;-67
2023/03/12 04:38:17;;;;;;;20.88;7.97;;;;;;;;;;4983563;28;20039;-67
2023/03/12 04:40:42;;;;;;;12.88;6.18;;;;;;;;;;4985868;28;20138;-68
2023/03/12 04:43:08;;;;;;;15.27;5.85;;;;;;;;;;4985250;28;20514;-68
2023/03/12 04:45:35;;;;;;;12.48;4.95;;;;;;;;;;4985027;28;20030;-67
2023/03/12 04:48:01;;;;;;;13.32;5.78;;;;;;;;;;5053969;28;20029;-67
2023/03/12 04:50:26;;;;;;;11.18;5.28;;;;;;;;;;5024888;28;20021;-67
2023/03/12 04:52:51;;;;;;;11.63;5.20;;;;;;;;;;5024297;28;20025;-67
2023/03/12 04:55:17;;;;;;;10.40;5.40;;;;;;;;;;5024250;28;20113;-68
2023/03/12 04:57:42;;;;;;;13.07;5.70;;;;;;;;;;5024076;28;20120;-68
2023/03/12 05:00:12;;;;;;;16.42;5.93;;;;;;;;;;5022471;28;20051;-68
2023/03/12 05:02:38;;;;;;;20.40;8.45;;;;;;;;;;5024165;28;20033;-68
2023/03/12 05:05:06;;;;;;;24.30;8.77;;;;;;;;;;5023804;28;20044;-68
2023/03/12 05:07:31;;;;;;;14.68;6.20;;;;;;;;;;5024275;28;20030;-67
2023/03/12 05:09:59;;;;;;;16.42;6.50;;;;;;;;;;5023558;28;20037;-66
2023/03/12 05:12:24;;;;;;;13.07;5.68;;;;;;;;;;5022578;28;20041;-68
2023/03/12 05:14:49;;;;;;;14.63;6.40;;;;;;;;;;5022425;28;20029;-68
2023/03/12 05:17:15;;;;;;;25.20;8.88;;;;;;;;;;5022715;28;20041;-68
2023/03/12 05:19:40;;;;;;;42.35;15.35;;;;;;;;;;5021973;28;20160;-67
2023/03/12 05:22:07;;;;;;;30.10;10.27;;;;;;;;;;5018459;28;20022;-67
2023/03/12 05:24:34;;;;;;;26.60;10.63;;;;;;;;;;5003801;28;20065;-68
2023/03/12 05:26:59;;;;;;;22.52;9.30;;;;;;;;;;5035380;28;20034;-68
2023/03/12 05:29:25;;;;;;;28.55;8.20;;;;;;;;;;5003474;28;20103;-68
2023/03/12 05:31:52;;;;;;;18.27;8.85;;;;;;;;;;5003429;28;20034;-67
2023/03/12 05:34:20;;;;;;;25.17;9.00;;;;;;;;;;5003736;28;20053;-67
2023/03/12 05:36:48;;;;;;;29.50;11.00;;;;;;;;;;5003558;28;20053;-67
2023/03/12 05:39:13;;;;;;;22.25;9.32;;;;;;;;;;5003978;28;20029;-68
2023/03/12 05:41:39;;;;;;;22.13;9.25;;;;;;;;;;5001860;28;20052;-67
2023/03/12 05:44:06;;;;;;;22.80;9.95;;;;;;;;;;5035118;28;20030;-68
2023/03/12 05:46:32;;;;;;;21.83;9.02;;;;;;;;;;5009892;28;20029;-67
2023/03/12 05:48:57;;;;;;;26.13;11.05;;;;;;;;;;5005369;28;20040;-68
2023/03/12 05:51:22;;;;;;;26.13;11.82;;;;;;;;;;5022960;28;20025;-68
2023/03/12 05:53:48;;;;;;;22.67;9.45;;;;;;;;;;5023384;28;20037;-67
2023/03/12 05:56:14;;;;;;;22.42;10.57;;;;;;;;;;5022612;28;20025;-68
2023/03/12 05:58:39;;;;;;;19.50;9.75;;;;;;;;;;5023038;28;20030;-68
2023/03/12 06:01:31;;;;;;;21.08;10.07;;;;;;;;;;5022921;28;20193;-68
2023/03/12 06:04:01;;;;;;;21.25;10.00;;;;;;;;;;5023379;28;20512;-67
2023/03/12 06:06:28;;;;;;;23.30;12.23;;;;;;;;;;5042473;28;20424;-68
2023/03/12 06:08:53;;;;;;;21.58;11.75;;;;;;;;;;5043626;28;20392;-68
2023/03/12 06:11:19;;;;;;;36.67;16.45;;;;;;;;;;5041014;28;20025;-68
2023/03/12 06:13:44;;;;;;;26.25;12.32;;;;;;;;;;5043051;28;20033;-67
2023/03/12 06:16:20;;;;;;;29.42;14.45;;;;;;;;;;5042720;28;20031;-67
2023/03/12 06:18:45;;;;;;;31.33;14.02;;;;;;;;;;5042620;28;20036;-67
2023/03/12 06:21:14;;;;;;;38.15;16.00;;;;;;;;;;5039524;28;20071;-67
2023/03/12 06:23:40;;;;;;;25.60;14.43;;;;;;;;;;5021378;28;20021;-67
2023/03/12 06:26:06;;;;;;;29.55;15.38;;;;;;;;;;5020701;28;20021;-67
2023/03/12 06:28:36;;;;;;;28.92;16.27;;;;;;;;;;5023015;28;20336;-67
2023/03/12 06:31:02;;;;;;;25.80;15.82;;;;;;;;;;5023131;28;20397;-67
2023/03/12 06:33:27;;;;;;;23.83;14.40;;;;;;;;;;5022777;28;20044;-67
2023/03/12 06:35:54;;;;;;;27.63;17.80;;;;;;;;;;5023114;28;20025;-67
2023/03/12 06:38:21;;;;;;;27.38;17.02;;;;;;;;;;5022375;28;20505;-67
2023/03/12 06:40:59;;;;;;;28.50;18.30;;;;;;;;;;5022637;28;20033;-67
2023/03/12 06:43:26;;;;;;;28.65;18.73;;;;;;;;;;5022640;28;20091;-67
2023/03/12 06:45:53;;;;;;;35.25;19.60;;;;;;;;;;5022232;28;20128;-67
2023/03/12 06:48:18;;;;;;;26.95;18.52;;;;;;;;;;5022763;28;20040;-68
2023/03/12 06:50:45;;;;;;;37.45;22.23;;;;;;;;;;5020555;28;20037;-68
2023/03/12 06:53:13;;;;;;;29.30;18.75;;;;;;;;;;5022616;28;20030;-68
2023/03/12 06:55:40;;;;;;;29.80;19.67;;;;;;;;;;5022119;28;20117;-68
2023/03/12 06:58:06;;;;;;;34.58;22.05;;;;;;;;;;5023178;28;20044;-68
2023/03/12 07:00:31;;;;;;;33.53;21.60;;;;;;;;;;5021719;28;20034;-68
2023/03/12 07:02:57;;;;;;;37.92;22.92;;;;;;;;;;5020686;28;20034;-67
2023/03/12 07:05:23;;;;;;;40.65;23.63;;;;;;;;;;5021189;28;20037;-68
2023/03/12 07:07:50;;;;;;;58.35;31.23;;;;;;;;;;5022326;28;20494;-69
2023/03/12 07:10:16;;;;;;;62.08;34.13;;;;;;;;;;5022530;28;20105;-67
2023/03/12 07:12:42;;;;;;;63.78;32.03;;;;;;;;;;5022132;28;20136;-67
2023/03/12 07:15:07;;;;;;;73.35;38.97;;;;;;;;;;5022792;28;20056;-68
2023/03/12 07:17:33;;;;;;;75.50;37.03;;;;;;;;;;5020705;28;20030;-68
2023/03/12 07:19:58;;;;;;;78.40;41.70;;;;;;;;;;5026272;28;20080;-69
2023/03/12 07:22:25;;;;;;;74.88;38.45;;;;;;;;;;5026026;28;20227;-69
2023/03/12 07:24:51;;;;;;;100.80;47.45;;;;;;;;;;5024698;28;20048;-68
2023/03/12 07:27:16;;;;;;;79.80;39.67;;;;;;;;;;5024847;28;20029;-67
2023/03/12 07:29:42;;;;;;;74.15;38.85;;;;;;;;;;5026259;28;20037;-68
2023/03/12 07:32:07;;;;;;;85.07;42.53;;;;;;;;;;5025801;28;20041;-67
2023/03/12 07:34:33;;;;;;;86.78;45.92;;;;;;;;;;5026134;28;20036;-68
2023/03/12 07:36:58;;;;;;;66.18;39.05;;;;;;;;;;5024155;28;20037;-67
2023/03/12 07:39:24;;;;;;;60.30;36.22;;;;;;;;;;5025927;28;20033;-68
2023/03/12 07:41:49;;;;;;;60.60;35.55;;;;;;;;;;5025661;28;20176;-69
2023/03/12 07:44:14;;;;;;;82.20;48.00;;;;;;;;;;5025946;28;20029;-68
2023/03/12 07:46:40;;;;;;;138.60;58.35;;;;;;;;;;5023806;28;20030;-67
2023/03/12 07:49:05;;;;;;;118.38;53.15;;;;;;;;;;5025431;28;20045;-67
2023/03/12 07:51:30;;;;;;;86.70;42.88;;;;;;;;;;5024158;28;20070;-67
2023/03/12 07:53:55;;;;;;;59.63;35.10;;;;;;;;;;5024493;28;20025;-68
2023/03/12 07:56:21;;;;;;;63.95;41.38;;;;;;;;;;5026086;28;20037;-68
2023/03/12 07:58:46;;;;;;;59.28;37.60;;;;;;;;;;5023841;28;20060;-68
2023/03/12 08:01:14;;;;;;;57.40;37.78;;;;;;;;;;5025883;28;20033;-68
2023/03/12 08:03:39;;;;;;;68.55;39.92;;;;;;;;;;5025069;28;20021;-69
2023/03/12 08:06:05;;;;;;;66.82;40.67;;;;;;;;;;5025802;28;20037;-67
2023/03/12 08:08:33;;;;;;;62.45;37.08;;;;;;;;;;5025362;28;20033;-66
2023/03/12 08:10:59;;;;;;;64.00;40.95;;;;;;;;;;5007452;28;20360;-68
2023/03/12 08:13:26;;;;;;;63.72;40.17;;;;;;;;;;5023660;28;20033;-67
2023/03/12 08:15:52;;;;;;;60.90;36.05;;;;;;;;;;5023162;28;20131;-67
2023/03/12 08:18:18;;;;;;;67.38;42.35;;;;;;;;;;5025618;28;20117;-67
2023/03/12 08:20:50;;;;;;;58.38;39.63;;;;;;;;;;5023341;28;20460;-67
2023/03/12 08:23:16;;;;;;;62.25;38.13;;;;;;;;;;5024998;28;20482;-68
2023/03/12 08:25:43;;;;;;;60.60;37.92;;;;;;;;;;5023503;28;20032;-68
2023/03/12 08:28:08;;;;;;;67.15;41.28;;;;;;;;;;5023238;28;20048;-68
2023/03/12 08:30:34;;;;;;;63.63;37.75;;;;;;;;;;5006065;28;20025;-69
2023/03/12 08:32:59;;;;;;;64.93;38.13;;;;;;;;;;5024430;28;20033;-69
2023/03/12 08:35:24;;;;;;;68.60;37.83;;;;;;;;;;5006548;28;20524;-69
2023/03/12 08:37:52;;;;;;;74.50;38.63;;;;;;;;;;5024575;28;20512;-69
2023/03/12 08:40:17;;;;;;;73.10;41.03;;;;;;;;;;5024941;28;20466;-68
2023/03/12 08:42:43;;;;;;;73.40;36.10;;;;;;;;;;5025082;28;20037;-68
2023/03/12 08:45:10;;;;;;;61.88;32.40;;;;;;;;;;5023816;28;24884;-68
2023/03/12 08:47:36;;;;;;;73.70;33.03;;;;;;;;;;5036905;28;20036;-68
2023/03/12 08:50:04;;;;;;;81.70;32.75;;;;;;;;;;5042603;28;20379;-69
2023/03/12 08:52:29;;;;;;;76.95;30.35;;;;;;;;;;5044334;28;20033;-67
2023/03/12 08:54:59;;;;;;;73.20;27.90;;;;;;;;;;5042570;28;20044;-69
2023/03/12 08:57:24;;;;;;;77.50;26.88;;;;;;;;;;5044278;28;20512;-69
2023/03/12 08:59:50;;;;;;;66.82;21.92;;;;;;;;;;5044280;28;20029;-68
2023/03/12 09:02:15;;;;;;;62.33;17.73;;;;;;;;;;5044191;28;20033;-68
2023/03/12 09:04:40;;;;;;;65.10;15.50;;;;;;;;;;5044416;28;20127;-67
2023/03/12 09:07:08;;;;;;;53.25;13.40;;;;;;;;;;5044659;28;20106;-67
2023/03/12 09:09:36;;;;;;;56.30;12.73;;;;;;;;;;5042993;28;20150;-69
2023/03/12 09:12:01;;;;;;;64.75;13.73;;;;;;;;;;5044616;28;20063;-67
2023/03/12 09:14:26;;;;;;;62.70;14.82;;;;;;;;;;5043758;28;20029;-68
2023/03/12 09:16:51;;;;;;;58.65;13.98;;;;;;;;;;5042520;28;20037;-68
2023/03/12 09:19:17;;;;;;;59.63;11.52;;;;;;;;;;5039720;28;20172;-68
2023/03/12 09:21:42;;;;;;;53.15;12.95;;;;;;;;;;5022727;28;20061;-68
2023/03/12 09:24:08;;;;;;;55.70;11.98;;;;;;;;;;5022170;28;20029;-68
2023/03/12 09:26:33;;;;;;;56.28;11.50;;;;;;;;;;5022799;28;20025;-68
2023/03/12 09:29:01;;;;;;;59.85;13.75;;;;;;;;;;5022077;28;20083;-69
2023/03/12 09:31:28;;;;;;;49.05;12.48;;;;;;;;;;5024405;28;20121;-68
2023/03/12 09:33:56;;;;;;;47.95;13.50;;;;;;;;;;5022124;28;20375;-67
2023/03/12 09:36:21;;;;;;;46.83;11.02;;;;;;;;;;5024267;28;20029;-69
2023/03/12 09:38:49;;;;;;;46.15;10.52;;;;;;;;;;5006109;28;20088;-67
2023/03/12 09:41:18;;;;;;;51.55;10.88;;;;;;;;;;5023515;28;20072;-70
2023/03/12 09:43:49;;;;;;;43.13;11.05;;;;;;;;;;5023674;28;20101;-67
2023/03/12 09:46:18;;;;;;;45.88;10.30;;;;;;;;;;5023180;28;20017;-68
2023/03/12 09:48:44;;;;;;;53.20;11.07;;;;;;;;;;5023103;28;20113;-66
2023/03/12 09:51:17;;;;;;;58.28;10.90;;;;;;;;;;5022003;28;20100;-68
2023/03/12 09:53:47;;;;;;;56.45;10.20;;;;;;;;;;5023592;28;20509;-68
2023/03/12 09:56:21;;;;;;;46.15;8.85;;;;;;;;;;5021736;28;20021;-68
2023/03/12 09:58:47;;;;;;;61.28;10.80;;;;;;;;;;5023433;28;20029;-68
2023/03/12 10:01:48;;;;;;;54.08;10.48;;;;;;;;;;5022411;28;20433;-68
2023/03/12 10:04:16;;;;;;;47.42;9.20;;;;;;;;;;4979858;28;20123;-68
2023/03/12 10:06:49;;;;;;;46.58;8.55;;;;;;;;;;5012911;28;20030;-68
2023/03/12 10:09:17;;;;;;;56.28;10.98;;;;;;;;;;5021222;28;20192;-68
2023/03/12 10:12:02;;;;;;;55.38;9.90;;;;;;;;;;5021211;28;20597;-67
2023/03/12 10:14:49;;;;;;;56.03;9.38;;;;;;;;;;5019907;28;20483;-68
2023/03/12 10:17:35;;;;;;;56.05;9.15;;;;;;;;;;5003123;28;20094;-67
2023/03/12 10:20:06;;;;;;;48.72;7.65;;;;;;;;;;5021211;28;20113;-68
2023/03/12 10:22:34;;;;;;;54.35;8.60;;;;;;;;;;5023207;28;20030;-70
2023/03/12 10:25:26;;;;;;;57.15;8.35;;;;;;;;;;5023054;28;20471;-69
2023/03/12 10:27:52;;;;;;;48.63;7.87;;;;;;;;;;4999586;28;20037;-69
2023/03/12 10:30:23;;;;;;;43.70;8.85;;;;;;;;;;5038257;28;20040;-68
2023/03/12 10:32:50;;;;;;;51.75;7.25;;;;;;;;;;5020514;28;20034;-69
2023/03/12 10:35:24;;;;;;;44.42;7.78;;;;;;;;;;5022496;28;20025;-68
2023/03/12 10:37:51;;;;;;;44.55;7.53;;;;;;;;;;5022251;28;20042;-68
2023/03/12 10:40:22;;;;;;;45.42;7.18;;;;;;;;;;5037160;28;20073;-68
2023/03/12 10:42:49;;;;;;;47.08;7.20;;;;;;;;;;5022500;28;20048;-68
2023/03/12 10:45:15;;;;;;;45.65;7.40;;;;;;;;;;5022740;28;20041;-68
2023/03/12 10:47:41;;;;;;;40.05;7.28;;;;;;;;;;5022728;28;20112;-69
2023/03/12 10:50:18;;;;;;;49.10;8.02;;;;;;;;;;5021257;28;20126;-70
2023/03/12 10:52:52;;;;;;;45.45;7.93;;;;;;;;;;5022587;28;20040;-69
2023/03/12 10:55:25;;;;;;;44.42;7.50;;;;;;;;;;5026689;28;20029;-69
2023/03/12 10:57:51;;;;;;;34.13;5.80;;;;;;;;;;5025172;28;20060;-69
2023/03/12 11:00:21;;;;;;;46.10;8.30;;;;;;;;;;5026400;28;20056;-68
2023/03/12 11:02:54;;;;;;;47.10;6.75;;;;;;;;;;5026943;28;20037;-70
2023/03/12 11:05:23;;;;;;;53.83;8.75;;;;;;;;;;5024813;28;20033;-69
2023/03/12 11:07:48;;;;;;;47.45;8.05;;;;;;;;;;5026585;28;20029;-69
2023/03/12 11:10:16;;;;;;;42.50;7.00;;;;;;;;;;5026605;28;20033;-70
2023/03/12 11:12:51;;;;;;;48.28;6.88;;;;;;;;;;5026296;28;20026;-69
2023/03/12 11:15:19;;;;;;;42.28;8.15;;;;;;;;;;5026150;28;20482;-69
2023/03/12 11:17:49;;;;;;;45.17;6.78;;;;;;;;;;5024611;28;20501;-69
2023/03/12 11:20:23;;;;;;;43.50;6.32;;;;;;;;;;5006770;28;20243;-69
2023/03/12 11:22:48;;;;;;;45.72;7.72;;;;;;;;;;5005964;28;20026;-69
2023/03/12 11:25:27;;;;;;;43.60;7.63;;;;;;;;;;5005146;28;20258;-70
2023/03/12 11:27:57;;;;;;;46.05;6.97;;;;;;;;;;5004379;28;20087;-69
2023/03/12 11:30:30;;;;;;;42.22;7.32;;;;;;;;;;5006083;28;20471;-69
2023/03/12 11:32:56;;;;;;;38.30;7.13;;;;;;;;;;5005742;28;20034;-70
2023/03/12 11:35:44;;;;;;;48.00;7.82;;;;;;;;;;5004680;28;20034;-71
2023/03/12 11:38:15;;;;;;;52.35;8.07;;;;;;;;;;5005866;28;20193;-70
2023/03/12 11:40:47;;;;;;;48.55;7.53;;;;;;;;;;5004683;28;20539;-70
2023/03/12 11:43:21;;;;;;;50.40;7.68;;;;;;;;;;5006460;28;20030;-70
2023/03/12 11:45:46;;;;;;;43.95;7.68;;;;;;;;;;5007076;28;20588;-71
2023/03/12 11:48:17;;;;;;;56.15;8.27;;;;;;;;;;5045848;28;20029;-71
2023/03/12 11:50:42;;;;;;;50.63;9.20;;;;;;;;;;5023994;28;20426;-70
2023/03/12 11:53:14;;;;;;;49.00;8.52;;;;;;;;;;5025814;28;20025;-70
2023/03/12 11:55:48;;;;;;;41.30;7.73;;;;;;;;;;5025696;28;20099;-70
2023/03/12 11:58:22;;;;;;;51.83;8.70;;;;;;;;;;5025158;28;20087;-70
2023/03/12 12:00:47;;;;;;;58.92;9.35;;;;;;;;;;5025353;28;20043;-69
2023/03/12 12:03:22;;;;;;;54.05;8.95;;;;;;;;;;5025562;28;20029;-70
2023/03/12 12:06:03;;;;;;;54.08;7.90;;;;;;;;;;5042488;28;20539;-70
2023/03/12 12:08:40;;;;;;;51.20;8.73;;;;;;;;;;5045560;28;20025;-71
2023/03/12 12:11:05;;;;;;;57.42;8.73;;;;;;;;;;5042440;28;20037;-69
2023/03/12 12:13:42;;;;;;;61.85;9.35;;;;;;;;;;5045264;28;20028;-70
2023/03/12 12:16:23;;;;;;;48.83;9.57;;;;;;;;;;5043154;28;20025;-69
2023/03/12 12:18:48;;;;;;;59.10;9.25;;;;;;;;;;5030198;28;20033;-70
2023/03/12 12:21:35;;;;;;;60.22;9.55;;;;;;;;;;5025309;28;20226;-70
2023/03/12 12:24:16;;;;;;;51.92;8.55;;;;;;;;;;5023234;28;20022;-69
2023/03/12 12:27:05;;;;;;;64.00;9.07;;;;;;;;;;5023310;28;20033;-70
2023/03/12 12:29:33;;;;;;;52.90;10.10;;;;;;;;;;5012969;28;20033;-69
2023/03/12 12:32:00;;;;;;;54.78;8.65;;;;;;;;;;5023079;28;20113;-69
2023/03/12 12:34:31;;;;;;;57.97;10.15;;;;;;;;;;5025341;28;20076;-69
2023/03/12 12:37:12;;;;;;;66.40;9.90;;;;;;;;;;5024565;28;20506;-69
2023/03/12 12:39:40;;;;;;;59.08;9.30;;;;;;;;;;5023071;28;20036;-70
2023/03/12 12:42:06;;;;;;;64.50;10.07;;;;;;;;;;5055456;28;20029;-70
2023/03/12 12:44:34;;;;;;;54.78;9.65;;;;;;;;;;5056342;28;20030;-71
2023/03/12 12:47:04;;;;;;;67.72;10.32;;;;;;;;;;5034617;28;20564;-70
2023/03/12 12:49:31;;;;;;;66.05;10.40;;;;;;;;;;5044317;28;20049;-69
2023/03/12 12:51:58;;;;;;;64.20;9.50;;;;;;;;;;5044395;28;20493;-71
2023/03/12 12:54:44;;;;;;;69.18;9.63;;;;;;;;;;5042915;28;20094;-70
2023/03/12 12:57:19;;;;;;;64.97;10.30;;;;;;;;;;5021415;28;20032;-70
2023/03/12 13:00:06;;;;;;;56.83;8.90;;;;;;;;;;5044862;28;20456;-70
2023/03/12 13:02:36;;;;;;;71.70;10.02;;;;;;;;;;5042986;28;20039;-70
2023/03/12 13:05:02;;;;;;;74.90;11.70;;;;;;;;;;5043930;28;20036;-70
2023/03/12 13:07:29;;;;;;;66.15;10.93;;;;;;;;;;5042670;28;20033;-70
2023/03/12 13:09:55;;;;;;;70.53;10.25;;;;;;;;;;5043688;28;20040;-70
2023/03/12 13:12:23;;;;;;;72.10;10.50;;;;;;;;;;5043843;28;20037;-70
2023/03/12 13:14:49;;;;;;;74.28;10.75;;;;;;;;;;5043661;28;20029;-70
2023/03/12 13:17:22;;;;;;;71.75;11.70;;;;;;;;;;5036256;28;20123;-70
2023/03/12 13:19:51;;;;;;;72.65;9.90;;;;;;;;;;5024197;28;20509;-70
2023/03/12 13:22:24;;;;;;;81.07;10.52;;;;;;;;;;5038770;28;20461;-71
2023/03/12 13:24:56;;;;;;;57.60;9.88;;;;;;;;;;5021243;28;20486;-69
2023/03/12 13:27:28;;;;;;;71.80;10.65;;;;;;;;;;5023850;28;20036;-71
2023/03/12 13:29:56;;;;;;;63.83;11.35;;;;;;;;;;5022052;28;20045;-70
2023/03/12 13:32:35;;;;;;;77.53;10.57;;;;;;;;;;5009878;28;20040;-69
2023/03/12 13:35:09;;;;;;;70.72;10.30;;;;;;;;;;5023251;28;20037;-72
2023/03/12 13:37:50;;;;;;;57.63;9.38;;;;;;;;;;5021904;28;20042;-70
2023/03/12 13:40:27;;;;;;;68.10;10.48;;;;;;;;;;5023403;28;20041;-69
2023/03/12 13:43:04;;;;;;;58.45;9.93;;;;;;;;;;5023681;28;20041;-70
2023/03/12 13:45:30;;;;;;;60.97;9.70;;;;;;;;;;5021942;28;20562;-71
2023/03/12 13:48:00;;;;;;;68.88;10.57;;;;;;;;;;5023805;28;20363;-70
2023/03/12 13:50:29;;;;;;;69.25;11.63;;;;;;;;;;5023799;28;20030;-70
2023/03/12 13:53:05;;;;;;;55.65;9.02;;;;;;;;;;5021799;28;20022;-69
2023/03/12 13:55:31;;;;;;;68.78;10.40;;;;;;;;;;5021510;28;20041;-68
2023/03/12 13:58:06;;;;;;;63.78;9.23;;;;;;;;;;5022841;28;20368;-69
2023/03/12 14:00:35;;;;;;;59.05;8.88;;;;;;;;;;5023010;28;20034;-70
2023/03/12 14:03:23;;;;;;;55.67;9.73;;;;;;;;;;5023128;28;20037;-70
2023/03/12 14:06:01;;;;;;;65.20;10.38;;;;;;;;;;4999023;28;20030;-70
2023/03/12 14:08:26;;;;;;;67.20;10.02;;;;;;;;;;5000968;28;20038;-71
2023/03/12 14:11:11;;;;;;;72.68;9.88;;;;;;;;;;4982820;28;20030;-70
2023/03/12 14:13:55;;;;;;;70.13;9.27;;;;;;;;;;4978559;28;20109;-70
2023/03/12 14:16:31;;;;;;;62.38;9.48;;;;;;;;;;5004937;28;20177;-69
2023/03/12 14:18:57;;;;;;;62.53;9.60;;;;;;;;;;5008592;28;20046;-68
2023/03/12 14:21:22;;;;;;;64.53;9.13;;;;;;;;;;5005985;28;20036;-68
2023/03/12 14:23:49;;;;;;;64.13;9.38;;;;;;;;;;4996340;28;20045;-69
2023/03/12 14:26:20;;;;;;;70.65;10.48;;;;;;;;;;5021581;28;20036;-70
2023/03/12 14:28:52;;;;;;;56.92;9.75;;;;;;;;;;5021293;28;20091;-70
2023/03/12 14:31:20;;;;;;;56.63;8.88;;;;;;;;;;5006406;28;20064;-68
2023/03/12 14:33:48;;;;;;;57.25;9.23;;;;;;;;;;5019169;28;20402;-68